Terminal Aerodrome Forecast
Issued by NWS Duluth, MN

Home | Current Version | Previous Version | Text Only | Print | Product List | Glossary On
Versions: 1 2 3 4 5 6 7 8 9 10 11 12 13 14 15 16 17 18 19 20 21 22 23 24 25 26 27 28 29 30 31 32 33 34 35 36
000
FTUS43 KDLH 221400 AAA
TAFDLH
TAF AMD
KDLH 221420Z 2214/2312 14008KT 3SM -SN BR OVC004
      TEMPO 2214/2218 1/4SM -DZSN FG OVC002
     FM222000 12008KT 2SM -SN BR OVC002
     FM230100 10010KT 1SM BR OVC004
     FM230600 09011KT 2SM -SN BR OVC002
     FM231000 07012KT 5SM BR OVC006=

USA.gov is the U.S. government's official web portal to all federal, state and local government web resources and services.